createdAt,value
2022-12-15T00:02:09.908Z,57000.66
2022-12-15T00:04:54.698Z,56998.59
2022-12-15T00:07:39.630Z,56973.75
2022-12-15T00:10:25.020Z,57199.31
2022-12-15T00:13:10.087Z,56979.97
2022-12-15T00:15:55.091Z,56977.91
2022-12-15T00:18:40.213Z,57015.16
2022-12-15T00:21:25.396Z,56984.09
2022-12-15T00:24:10.541Z,56907.53
2022-12-15T00:26:55.314Z,57023.41
2022-12-15T00:29:40.077Z,56959.28
2022-12-15T00:32:25.113Z,56979.97
2022-12-15T00:35:10.200Z,56959.28
2022-12-15T00:37:55.316Z,57035.84
2022-12-15T00:40:21.688Z,57019.28
2022-12-15T00:42:49.747Z,57008.94
2022-12-15T00:45:16.655Z,56951.00
2022-12-15T00:47:43.057Z,57145.50
2022-12-15T00:50:28.153Z,56984.09
2022-12-15T00:53:12.892Z,56998.59
2022-12-15T00:55:57.931Z,56979.97
2022-12-15T00:58:42.814Z,56934.44
2022-12-15T01:01:28.472Z,57019.28
2022-12-15T01:04:14.040Z,57013.06
2022-12-15T01:06:59.136Z,57015.16
2022-12-15T01:09:44.198Z,57033.78
2022-12-15T01:12:29.152Z,57081.38
2022-12-15T01:15:14.168Z,57002.72
2022-12-15T01:17:59.227Z,56988.25
2022-12-15T01:20:25.669Z,57087.56
2022-12-15T01:22:54.387Z,56955.13
2022-12-15T01:25:23.197Z,57081.38
2022-12-15T01:27:49.955Z,57021.34
2022-12-15T01:30:19.516Z,56988.25
2022-12-15T01:32:46.544Z,57027.56
2022-12-15T01:35:13.324Z,56996.53
2022-12-15T01:37:39.751Z,57029.63
2022-12-15T01:40:26.351Z,57000.66
2022-12-15T01:42:53.357Z,57079.28
2022-12-15T01:45:29.089Z,57039.97
2022-12-15T01:48:31.107Z,57042.03
2022-12-15T01:50:57.460Z,56996.53
2022-12-15T01:53:24.056Z,57004.81
2022-12-15T01:55:50.732Z,57186.91
2022-12-15T01:58:18.373Z,57294.50
2022-12-15T02:00:44.949Z,57037.91
2022-12-15T02:03:11.817Z,57035.84
2022-12-15T02:05:38.423Z,57056.53
2022-12-15T02:08:04.996Z,57054.47
2022-12-15T02:10:56.244Z,57087.56
2022-12-15T02:13:29.161Z,57100.00
2022-12-15T02:16:05.347Z,57097.91
2022-12-15T02:18:45.797Z,57168.28
2022-12-15T02:21:18.789Z,57097.91
2022-12-15T02:23:57.215Z,57095.84
2022-12-15T02:27:08.777Z,57042.03
2022-12-15T02:30:12.742Z,57193.09
2022-12-15T02:32:54.274Z,57077.22
2022-12-15T02:35:26.157Z,57089.63
2022-12-15T02:37:52.639Z,57062.75
2022-12-15T02:40:19.334Z,57064.81
2022-12-15T02:42:49.611Z,56992.38
2022-12-15T02:45:20.678Z,57079.28
2022-12-15T02:47:55.780Z,57120.69
2022-12-15T02:50:28.436Z,57060.66
2022-12-15T02:53:19.525Z,57083.44
2022-12-15T02:56:10.681Z,57102.06
2022-12-15T02:58:51.178Z,57033.78
2022-12-15T03:01:26.113Z,57333.81
2022-12-15T03:03:52.856Z,57087.56
2022-12-15T03:06:19.748Z,57093.78
2022-12-15T03:08:46.203Z,57097.91
2022-12-15T03:11:13.121Z,57050.31
2022-12-15T03:13:39.605Z,57104.13
2022-12-15T03:16:06.205Z,57100.00
2022-12-15T03:18:32.645Z,57073.09
2022-12-15T03:20:59.044Z,57054.47
2022-12-15T03:23:25.567Z,57128.97
2022-12-15T03:25:52.058Z,57023.41
2022-12-15T03:28:18.526Z,57168.28
2022-12-15T03:30:45.055Z,57027.56
2022-12-15T03:33:11.458Z,57404.19
2022-12-15T03:35:37.863Z,57073.09
2022-12-15T03:38:04.278Z,57075.16
2022-12-15T03:40:30.766Z,57168.28
2022-12-15T03:42:58.007Z,57108.25
2022-12-15T03:45:26.753Z,57112.41
2022-12-15T03:47:57.455Z,57116.53
2022-12-15T03:50:26.809Z,57120.69
2022-12-15T03:52:55.551Z,57095.84
2022-12-15T03:55:22.607Z,57124.81
2022-12-15T03:57:49.442Z,57400.06
2022-12-15T04:00:16.505Z,57075.16
2022-12-15T04:02:43.611Z,57118.59
2022-12-15T04:05:17.391Z,57112.41
2022-12-15T04:07:43.820Z,57091.72
2022-12-15T04:10:11.637Z,57133.09
2022-12-15T04:12:39.642Z,57114.47
2022-12-15T04:15:07.552Z,57073.09
2022-12-15T04:17:34.068Z,57253.13
2022-12-15T04:20:09.492Z,57358.66
2022-12-15T04:22:43.987Z,57400.06
2022-12-15T04:25:32.475Z,57087.56
2022-12-15T04:28:17.797Z,57068.94
2022-12-15T04:31:05.935Z,57292.44
2022-12-15T04:33:53.428Z,57100.00
2022-12-15T04:36:41.025Z,57128.97
2022-12-15T04:39:27.143Z,57081.38
2022-12-15T04:42:13.260Z,57075.16
2022-12-15T04:44:58.143Z,57104.13
2022-12-15T04:47:43.236Z,57083.44
2022-12-15T04:50:28.058Z,57075.16
2022-12-15T04:53:13.117Z,57108.25
2022-12-15T04:55:58.067Z,57083.44
2022-12-15T04:58:43.048Z,57077.22
2022-12-15T05:01:28.119Z,57081.38
2022-12-15T05:04:13.178Z,57089.63
2022-12-15T05:06:58.292Z,57091.72
2022-12-15T05:09:43.175Z,57095.84
2022-12-15T05:12:28.008Z,57093.78
2022-12-15T05:15:13.124Z,57085.50
2022-12-15T05:17:59.106Z,57356.59
2022-12-15T05:20:44.318Z,57116.53
2022-12-15T05:23:29.411Z,57114.47
2022-12-15T05:26:14.706Z,57077.22
2022-12-15T05:28:59.731Z,57095.84
2022-12-15T05:31:44.779Z,57116.53
2022-12-15T05:34:11.175Z,57093.78
2022-12-15T05:36:37.664Z,57118.59
2022-12-15T05:39:04.191Z,57083.44
2022-12-15T05:41:30.608Z,57108.25
2022-12-15T05:43:57.010Z,57100.00
2022-12-15T05:46:23.535Z,57081.38
2022-12-15T05:48:49.995Z,57068.94
2022-12-15T05:51:18.702Z,57095.84
2022-12-15T05:53:45.239Z,57087.56
2022-12-15T05:56:13.276Z,57124.81
2022-12-15T05:58:45.124Z,57083.44
2022-12-15T06:01:14.715Z,57116.53
2022-12-15T06:03:42.132Z,57087.56
2022-12-15T06:06:09.724Z,57097.91
2022-12-15T06:08:39.340Z,57100.00
2022-12-15T06:11:06.214Z,57093.78
2022-12-15T06:13:34.814Z,57108.25
2022-12-15T06:16:05.225Z,57100.00
2022-12-15T06:18:34.589Z,57095.84
2022-12-15T06:21:03.878Z,57064.81
2022-12-15T06:23:31.837Z,57131.03
2022-12-15T06:25:59.691Z,57112.41
2022-12-15T06:28:26.298Z,57100.00
2022-12-15T06:30:54.629Z,57100.00
2022-12-15T06:33:22.356Z,57050.31
2022-12-15T06:35:49.337Z,57097.91
2022-12-15T06:38:15.810Z,57097.91
2022-12-15T06:40:42.215Z,57095.84
2022-12-15T06:43:08.609Z,57021.34
2022-12-15T06:45:35.652Z,57058.59
2022-12-15T06:48:02.201Z,57062.75
2022-12-15T06:50:28.619Z,57337.97
2022-12-15T06:52:55.032Z,57104.13
2022-12-15T06:55:21.469Z,57087.56
2022-12-15T06:57:48.688Z,57097.91
2022-12-15T07:00:15.651Z,57044.13
2022-12-15T07:02:42.862Z,57064.81
2022-12-15T07:05:09.489Z,57089.63
2022-12-15T07:07:35.918Z,57071.00
2022-12-15T07:10:02.520Z,57066.88
2022-12-15T07:12:28.886Z,57083.44
2022-12-15T07:14:55.289Z,57100.00
2022-12-15T07:17:21.757Z,57060.66
2022-12-15T07:19:48.152Z,57271.75
2022-12-15T07:22:14.578Z,57087.56
2022-12-15T07:24:40.987Z,57075.16
2022-12-15T07:27:07.397Z,57292.44
2022-12-15T07:29:33.873Z,57108.25
2022-12-15T07:32:01.047Z,57085.50
2022-12-15T07:34:27.587Z,57071.00
2022-12-15T07:36:54.019Z,57066.88
2022-12-15T07:39:20.494Z,57097.91
2022-12-15T07:41:46.894Z,57166.22
2022-12-15T07:44:14.702Z,57373.16
2022-12-15T07:46:41.136Z,57126.88
2022-12-15T07:49:07.561Z,57114.47
2022-12-15T07:51:34.341Z,57083.44
2022-12-15T07:54:00.765Z,57251.06
2022-12-15T07:56:27.603Z,57085.50
2022-12-15T07:58:54.092Z,57013.06
2022-12-15T08:01:21.089Z,57116.53
2022-12-15T08:03:48.940Z,57064.81
2022-12-15T08:06:16.020Z,56984.09
2022-12-15T08:08:44.262Z,57128.97
2022-12-15T08:11:13.500Z,57083.44
2022-12-15T08:16:27.516Z,57108.25
2022-12-15T08:18:54.022Z,57102.06
2022-12-15T08:21:20.465Z,57133.09
2022-12-15T08:23:47.054Z,57064.81
2022-12-15T08:26:15.683Z,57122.75
2022-12-15T08:28:42.753Z,57133.09
2022-12-15T08:31:16.731Z,57126.88
2022-12-15T08:33:44.589Z,57056.53
2022-12-15T08:36:12.989Z,57137.22
2022-12-15T08:38:40.364Z,57104.13
2022-12-15T08:41:15.878Z,57100.00
2022-12-15T08:43:47.958Z,57155.84
2022-12-15T08:46:15.366Z,57106.19
2022-12-15T08:48:41.848Z,57277.94
2022-12-15T08:51:08.441Z,57141.38
2022-12-15T08:53:34.875Z,57112.41
2022-12-15T08:56:06.024Z,57145.50
2022-12-15T08:58:32.806Z,57145.50
2022-12-15T09:01:01.669Z,57068.94
2022-12-15T09:03:28.427Z,57155.84
2022-12-15T09:05:55.201Z,57108.25
2022-12-15T09:08:22.559Z,57131.03
2022-12-15T09:10:52.328Z,57153.78
2022-12-15T09:13:19.187Z,57160.00
2022-12-15T09:16:08.983Z,57263.47
2022-12-15T09:18:32.678Z,57143.44
2022-12-15T09:21:03.755Z,57306.94
2022-12-15T09:23:30.851Z,57184.81
2022-12-15T09:26:08.729Z,57178.63
2022-12-15T09:28:35.470Z,57172.41
2022-12-15T09:31:10.242Z,57182.75
2022-12-15T09:33:37.740Z,57178.63
2022-12-15T09:36:05.492Z,57133.09
2022-12-15T09:38:38.939Z,57186.91
2022-12-15T09:41:18.181Z,57244.84
2022-12-15T09:43:56.528Z,57207.59
2022-12-15T09:46:23.481Z,57207.59
2022-12-15T09:48:50.907Z,57201.38
2022-12-15T09:51:18.517Z,57207.59
2022-12-15T09:53:54.661Z,57184.81
2022-12-15T09:56:29.146Z,57201.38
2022-12-15T09:59:03.866Z,57213.81
2022-12-15T10:01:42.732Z,57228.28
2022-12-15T10:04:20.294Z,57248.97
2022-12-15T10:07:09.123Z,57199.31
2022-12-15T10:09:38.635Z,57230.34
2022-12-15T10:12:22.234Z,57207.59
2022-12-15T10:15:04.543Z,57191.03
2022-12-15T10:17:41.120Z,57207.59
2022-12-15T10:20:19.582Z,57269.69
2022-12-15T10:22:48.516Z,57236.56
2022-12-15T10:25:29.299Z,57255.19
2022-12-15T10:28:40.494Z,57267.59
2022-12-15T10:31:19.615Z,57255.19
2022-12-15T10:33:50.744Z,57236.56
2022-12-15T10:36:17.405Z,57222.06
2022-12-15T10:38:47.408Z,57323.47
2022-12-15T10:41:25.838Z,57414.53
2022-12-15T10:43:54.192Z,57224.16
2022-12-15T10:46:27.162Z,57232.44
2022-12-15T10:49:16.536Z,57284.16
2022-12-15T10:52:04.324Z,57410.41
2022-12-15T10:54:44.744Z,57282.09
2022-12-15T10:57:31.725Z,57259.31
2022-12-15T11:00:13.322Z,57240.69
2022-12-15T11:02:42.060Z,57364.88
2022-12-15T11:05:15.464Z,57255.19
2022-12-15T11:07:46.055Z,57265.53
2022-12-15T11:10:25.627Z,57263.47
2022-12-15T11:13:10.818Z,57271.75
2022-12-15T11:15:40.186Z,57284.16
2022-12-15T11:18:18.807Z,57261.41
2022-12-15T11:20:52.800Z,57267.59
2022-12-15T11:23:26.407Z,57325.56
2022-12-15T11:26:06.840Z,57269.69
2022-12-15T11:28:48.255Z,57265.53
2022-12-15T11:31:27.194Z,57286.22
2022-12-15T11:33:54.655Z,57298.66
2022-12-15T11:36:30.820Z,57273.81
2022-12-15T11:39:04.333Z,57265.53
2022-12-15T11:41:39.755Z,57340.03
2022-12-15T11:44:24.340Z,57356.59
2022-12-15T11:46:59.539Z,57344.16
2022-12-15T11:49:51.963Z,57356.59
2022-12-15T11:52:33.877Z,57311.06
2022-12-15T11:55:09.784Z,57337.97
2022-12-15T11:58:11.677Z,57364.88
2022-12-15T12:00:43.933Z,57352.44
2022-12-15T12:03:21.692Z,57362.78
2022-12-15T12:06:00.813Z,57354.53
2022-12-15T12:08:46.392Z,57335.91
2022-12-15T12:11:21.410Z,57555.25
2022-12-15T12:13:50.867Z,57346.25
2022-12-15T12:16:36.185Z,57333.81
2022-12-15T12:19:10.754Z,57335.91
2022-12-15T12:21:41.371Z,57354.53
2022-12-15T12:24:22.511Z,57375.22
2022-12-15T12:27:02.232Z,57377.28
2022-12-15T12:29:34.097Z,57350.38
2022-12-15T12:32:24.150Z,57418.66
2022-12-15T12:34:51.159Z,57389.69
2022-12-15T12:37:47.160Z,57377.28
2022-12-15T12:40:27.188Z,57393.84
2022-12-15T12:42:58.257Z,57381.44
2022-12-15T12:45:37.335Z,57344.16
2022-12-15T12:48:12.964Z,57364.88
2022-12-15T12:50:39.503Z,57379.34
2022-12-15T12:53:05.960Z,57346.25
2022-12-15T12:55:42.612Z,57412.47
2022-12-15T12:58:32.636Z,57360.72
2022-12-15T13:01:11.327Z,57408.31
2022-12-15T13:03:42.276Z,57387.63
2022-12-15T13:06:31.825Z,57381.44
2022-12-15T13:09:19.040Z,57383.50
2022-12-15T13:11:56.762Z,57387.63
2022-12-15T13:14:27.339Z,57364.88
2022-12-15T13:17:28.728Z,57578.03
2022-12-15T13:19:58.167Z,57402.13
2022-12-15T13:22:32.342Z,57416.59
2022-12-15T13:24:58.921Z,57391.78
2022-12-15T13:27:35.140Z,57381.44
2022-12-15T13:30:07.755Z,57412.47
2022-12-15T13:32:44.257Z,57397.97
2022-12-15T13:35:11.800Z,57373.16
2022-12-15T13:37:49.164Z,57385.56
2022-12-15T13:40:32.968Z,57393.84
2022-12-15T13:43:09.205Z,57362.78
2022-12-15T13:45:50.714Z,57381.44
2022-12-15T13:48:45.899Z,57373.16
2022-12-15T13:51:25.868Z,57352.44
2022-12-15T13:54:05.070Z,57362.78
2022-12-15T13:56:50.743Z,57371.06
2022-12-15T13:59:26.520Z,57358.66
2022-12-15T14:01:54.060Z,57329.69
2022-12-15T14:04:21.812Z,57352.44
2022-12-15T14:06:50.813Z,57408.31
2022-12-15T14:09:22.404Z,57383.50
2022-12-15T14:11:54.087Z,57327.63
2022-12-15T14:14:27.633Z,57373.16
2022-12-15T14:17:07.893Z,57369.00
2022-12-15T14:19:40.992Z,57418.66
2022-12-15T14:22:29.920Z,57460.06
2022-12-15T14:25:15.120Z,57373.16
2022-12-15T14:27:41.868Z,57385.56
2022-12-15T14:30:29.544Z,57373.16
2022-12-15T14:32:59.625Z,57348.31
2022-12-15T14:35:30.455Z,57296.56
2022-12-15T14:37:58.627Z,57340.03
2022-12-15T14:40:28.906Z,57286.22
2022-12-15T14:42:55.974Z,57290.38
2022-12-15T14:45:25.576Z,57261.41
2022-12-15T14:48:30.649Z,57306.94
2022-12-15T14:50:48.171Z,57265.53
2022-12-15T14:53:18.612Z,57280.03
2022-12-15T14:55:45.079Z,57273.81
2022-12-15T14:58:38.136Z,57263.47
2022-12-15T15:01:28.680Z,57248.97
2022-12-15T15:03:59.819Z,57232.44
2022-12-15T15:06:39.464Z,57265.53
2022-12-15T15:09:25.969Z,57257.25
2022-12-15T15:11:55.116Z,57232.44
2022-12-15T15:14:27.332Z,57443.50
2022-12-15T15:17:03.858Z,57211.72
2022-12-15T15:19:32.429Z,57133.09
2022-12-15T15:22:01.021Z,57209.66
2022-12-15T15:24:35.686Z,57188.97
2022-12-15T15:27:44.233Z,57207.59
2022-12-15T15:30:23.590Z,57199.31
2022-12-15T15:32:58.178Z,57215.88
2022-12-15T15:35:33.055Z,57186.91
2022-12-15T15:38:18.143Z,57170.34
2022-12-15T15:40:52.603Z,57174.47
2022-12-15T15:43:19.486Z,57116.53
2022-12-15T15:45:47.190Z,57093.78
2022-12-15T15:48:27.174Z,57131.03
2022-12-15T15:50:53.545Z,57147.59
2022-12-15T15:53:22.662Z,57116.53
2022-12-15T15:55:53.731Z,57120.69
2022-12-15T15:58:23.395Z,57089.63
2022-12-15T16:00:49.912Z,57093.78
2022-12-15T16:03:18.037Z,57120.69
2022-12-15T16:05:46.412Z,57091.72
2022-12-15T16:08:18.872Z,57089.63
2022-12-15T16:10:47.189Z,57135.16
2022-12-15T16:13:25.503Z,57116.53
2022-12-15T16:15:52.352Z,57104.13
2022-12-15T16:18:19.354Z,57095.84
2022-12-15T16:20:48.874Z,57319.34
2022-12-15T16:23:27.486Z,57164.13
2022-12-15T16:26:00.527Z,57141.38
2022-12-15T16:28:33.157Z,57135.16
2022-12-15T16:31:01.264Z,57162.06
2022-12-15T16:33:28.273Z,57147.59
2022-12-15T16:35:54.763Z,57116.53
2022-12-15T16:38:34.526Z,57162.06
2022-12-15T16:41:06.361Z,57126.88
2022-12-15T16:43:38.172Z,57373.16
2022-12-15T16:46:07.022Z,57108.25
2022-12-15T16:48:33.981Z,57124.81
2022-12-15T16:51:00.728Z,57118.59
2022-12-15T16:53:32.424Z,57397.97
2022-12-15T16:56:00.394Z,57104.13
2022-12-15T16:58:27.803Z,57164.13
2022-12-15T17:00:54.739Z,57137.22
2022-12-15T17:03:28.348Z,57112.41
2022-12-15T17:05:57.092Z,57075.16
2022-12-15T17:08:42.680Z,57145.50
2022-12-15T17:11:16.113Z,57406.25
2022-12-15T17:13:46.105Z,57188.97
2022-12-15T17:16:14.539Z,57356.59
2022-12-15T17:18:42.770Z,57199.31
2022-12-15T17:21:13.909Z,57191.03
2022-12-15T17:23:40.977Z,57157.94
2022-12-15T17:26:25.696Z,57178.63
2022-12-15T17:28:54.977Z,57170.34
2022-12-15T17:31:23.366Z,57133.09
2022-12-15T17:33:50.016Z,57166.22
2022-12-15T17:36:20.280Z,57191.03
2022-12-15T17:38:48.362Z,57166.22
2022-12-15T17:41:35.082Z,57478.69
2022-12-15T17:46:48.509Z,57182.75
2022-12-15T17:49:15.408Z,57186.91
2022-12-15T17:51:45.240Z,57176.56
2022-12-15T17:54:13.938Z,57191.03
2022-12-15T17:56:42.159Z,57178.63
2022-12-15T17:59:14.296Z,57157.94
2022-12-15T18:01:42.721Z,57226.22
2022-12-15T18:04:10.391Z,57263.47
2022-12-15T18:06:41.523Z,57042.03
2022-12-15T18:09:15.956Z,57182.75
2022-12-15T18:11:45.081Z,57155.84
2022-12-15T18:14:17.010Z,57133.09
2022-12-15T18:16:44.180Z,57191.03
2022-12-15T18:19:10.788Z,57153.78
2022-12-15T18:21:37.451Z,57176.56
2022-12-15T18:24:06.359Z,57162.06
2022-12-15T18:26:37.765Z,57164.13
2022-12-15T18:29:12.816Z,57151.72
2022-12-15T18:31:39.419Z,57172.41
2022-12-15T18:34:12.692Z,57149.66
2022-12-15T18:36:39.898Z,57176.56
2022-12-15T18:39:18.540Z,57213.81
2022-12-15T18:41:45.870Z,57149.66
2022-12-15T18:44:32.544Z,57182.75
2022-12-15T18:46:59.138Z,57157.94
2022-12-15T18:49:25.604Z,57178.63
2022-12-15T18:51:52.153Z,57106.19
2022-12-15T18:54:21.139Z,57141.38
2022-12-15T18:56:47.788Z,57110.34
2022-12-15T18:59:15.672Z,57122.75
2022-12-15T19:01:43.563Z,57106.19
2022-12-15T19:04:10.177Z,57124.81
2022-12-15T19:06:38.025Z,57100.00
2022-12-15T19:09:13.843Z,57077.22
2022-12-15T19:11:40.436Z,57071.00
2022-12-15T19:14:33.209Z,57093.78
2022-12-15T19:17:18.155Z,57058.59
2022-12-15T19:20:03.153Z,57110.34
2022-12-15T19:22:30.443Z,57259.31
2022-12-15T19:24:56.974Z,57071.00
2022-12-15T19:27:26.500Z,57149.66
2022-12-15T19:29:54.268Z,57118.59
2022-12-15T19:32:21.446Z,57149.66
2022-12-15T19:34:47.928Z,57160.00
2022-12-15T19:37:21.669Z,57124.81
2022-12-15T19:39:48.243Z,57143.44
2022-12-15T19:42:18.837Z,57126.88
2022-12-15T19:44:45.450Z,57128.97
2022-12-15T19:47:15.268Z,57149.66
2022-12-15T19:49:42.625Z,57112.41
2022-12-15T19:52:19.429Z,57149.66
2022-12-15T19:54:47.277Z,57160.00
2022-12-15T19:57:18.108Z,57311.06
2022-12-15T19:59:44.437Z,57149.66
2022-12-15T20:02:16.431Z,57124.81
2022-12-15T20:04:43.333Z,57091.72
2022-12-15T20:07:19.652Z,57120.69
2022-12-15T20:09:46.132Z,57029.63
2022-12-15T20:12:19.663Z,57087.56
2022-12-15T20:14:47.098Z,57139.31
2022-12-15T20:17:13.470Z,57120.69
2022-12-15T20:19:39.863Z,57160.00
2022-12-15T20:22:09.105Z,57166.22
2022-12-15T20:24:36.222Z,57174.47
2022-12-15T20:27:07.301Z,57128.97
2022-12-15T20:29:36.926Z,57145.50
2022-12-15T20:32:05.943Z,57095.84
2022-12-15T20:34:32.470Z,57178.63
2022-12-15T20:36:58.925Z,57126.88
2022-12-15T20:39:29.301Z,57133.09
2022-12-15T20:41:56.801Z,57164.13
2022-12-15T20:44:26.218Z,57186.91
2022-12-15T20:46:53.178Z,57213.81
2022-12-15T20:49:21.548Z,57441.44
2022-12-15T20:51:48.716Z,57104.13
2022-12-15T20:54:20.638Z,57128.97
2022-12-15T20:56:47.968Z,57112.41
2022-12-15T20:59:15.930Z,57110.34
2022-12-15T21:01:43.194Z,57141.38
2022-12-15T21:04:27.042Z,57149.66
2022-12-15T21:06:54.982Z,57141.38
2022-12-15T21:09:22.213Z,57019.28
2022-12-15T21:11:55.521Z,57093.78
2022-12-15T21:14:23.549Z,57085.50
2022-12-15T21:16:50.060Z,57066.88
2022-12-15T21:19:22.115Z,57062.75
2022-12-15T21:21:55.051Z,57298.66
2022-12-15T21:24:25.073Z,57044.13
2022-12-15T21:26:52.302Z,57087.56
2022-12-15T21:29:21.551Z,57087.56
2022-12-15T21:31:48.325Z,57066.88
2022-12-15T21:34:15.238Z,57110.34
2022-12-15T21:36:43.084Z,57143.44
2022-12-15T21:39:13.075Z,57091.72
2022-12-15T21:41:41.808Z,57085.50
2022-12-15T21:44:14.890Z,57013.06
2022-12-15T21:46:41.530Z,57097.91
2022-12-15T21:49:15.053Z,57104.13
2022-12-15T21:51:47.153Z,57075.16
2022-12-15T21:54:19.332Z,57087.56
2022-12-15T21:56:47.526Z,57025.50
2022-12-15T21:59:21.776Z,57062.75
2022-12-15T22:01:48.974Z,57039.97
2022-12-15T22:04:26.773Z,57064.81
2022-12-15T22:06:53.355Z,57035.84
2022-12-15T22:09:21.108Z,57029.63
2022-12-15T22:11:50.184Z,57068.94
2022-12-15T22:14:26.714Z,57042.03
2022-12-15T22:16:53.695Z,57048.25
2022-12-15T22:19:21.857Z,57062.75
2022-12-15T22:21:48.805Z,57058.59
2022-12-15T22:24:15.415Z,57077.22
2022-12-15T22:26:42.130Z,57073.09
2022-12-15T22:29:15.541Z,57075.16
2022-12-15T22:31:42.102Z,56988.25
2022-12-15T22:34:22.822Z,57029.63
2022-12-15T22:36:50.652Z,56953.06
2022-12-15T22:39:19.003Z,57075.16
2022-12-15T22:41:48.142Z,57035.84
2022-12-15T22:44:20.458Z,57062.75
2022-12-15T22:46:47.027Z,57029.63
2022-12-15T22:49:19.141Z,57046.19
2022-12-15T22:51:45.959Z,56979.97
2022-12-15T22:54:19.746Z,57023.41
2022-12-15T22:56:47.402Z,57033.78
2022-12-15T22:59:21.059Z,57042.03
2022-12-15T23:01:47.592Z,57011.00
2022-12-15T23:04:14.388Z,57042.03
2022-12-15T23:06:41.104Z,57054.47
2022-12-15T23:09:07.792Z,57033.78
2022-12-15T23:11:37.075Z,57300.72
2022-12-15T23:14:15.392Z,57042.03
2022-12-15T23:16:42.784Z,57064.81
2022-12-15T23:19:09.503Z,57046.19
2022-12-15T23:21:36.382Z,57004.81
2022-12-15T23:24:02.894Z,57037.91
2022-12-15T23:26:29.379Z,57037.91
2022-12-15T23:28:55.775Z,57019.28
2022-12-15T23:31:22.605Z,57017.22
2022-12-15T23:33:49.851Z,57042.03
2022-12-15T23:36:19.014Z,57027.56
2022-12-15T23:38:45.442Z,57062.75
2022-12-15T23:41:15.633Z,57027.56
2022-12-15T23:43:42.081Z,57025.50
2022-12-15T23:46:08.654Z,57029.63
2022-12-15T23:48:40.451Z,57017.22
2022-12-15T23:51:18.018Z,57006.88
2022-12-15T23:53:46.104Z,57021.34
2022-12-15T23:56:16.423Z,57008.94
2022-12-15T23:58:44.972Z,57015.16
